Time;durP1;ratioP1;P1;durP2;ratioP2;P2;SDS_P1;SDS_P2;PMS_P1;PMS_P2;Temp;Humidity;BMP_temperature;BMP_pressure;BME280_temperature;BME280_humidity;BME280_pressure;Samples;Min_cycle;Max_cycle;Signal;HPM_P1;HPM_P2
2023/08/26 00:02:34;;;;;;;6.80;4.20;;;;;;;23.22;83.30;98583.13;7258716;40;20269;31
2023/08/26 00:08:09;;;;;;;6.75;4.00;;;;;;;23.20;84.24;98599.09;7279337;39;20878;31
2023/08/26 00:13:30;;;;;;;6.90;4.00;;;;;;;23.29;84.60;98582.94;7258365;40;20242;31
2023/08/26 00:19:05;;;;;;;6.50;4.60;;;;;;;23.31;83.58;98598.06;7261782;40;20241;31
2023/08/26 00:24:40;;;;;;;9.85;4.65;;;;;;;23.16;85.19;98602.62;7297465;39;20325;31
2023/08/26 00:35:26;;;;;;;8.27;4.43;;;;;;;23.17;84.87;98585.84;7331840;39;20447;31
2023/08/26 00:41:01;;;;;;;8.20;4.57;;;;;;;23.06;85.35;98592.38;7303252;39;20511;31
2023/08/26 00:46:37;;;;;;;6.80;4.65;;;;;;;23.06;85.36;98591.53;7251471;40;20250;31
2023/08/26 00:52:09;;;;;;;9.00;4.50;;;;;;;23.11;85.37;98616.34;7216188;40;20278;31
2023/08/26 01:02:46;;;;;;;10.25;4.95;;;;;;;23.02;84.44;98626.97;7222825;39;21220;31
2023/08/26 01:13:22;;;;;;;7.80;4.62;;;;;;;23.12;84.41;98638.06;7305139;39;21194;31
2023/08/26 01:24:02;;;;;;;6.07;4.33;;;;;;;23.05;84.02;98645.69;7300667;39;20276;31
2023/08/26 01:34:41;;;;;;;7.25;4.45;;;;;;;23.07;82.93;98645.44;7291323;39;20527;31
2023/08/26 01:40:18;;;;;;;8.90;4.57;;;;;;;22.99;83.54;98644.00;7355323;39;20243;31
2023/08/26 01:45:38;;;;;;;11.20;4.40;;;;;;;22.97;82.20;98646.16;7295574;39;20342;31
2023/08/26 01:50:58;;;;;;;7.65;4.50;;;;;;;22.88;82.19;98640.31;7296998;39;20261;31
2023/08/26 01:56:33;;;;;;;7.60;4.20;;;;;;;22.83;82.90;98655.91;7299445;39;20291;31
2023/08/26 02:06:55;;;;;;;6.90;4.47;;;;;;;22.72;81.29;98676.16;7298287;40;21456;31
2023/08/26 02:12:31;;;;;;;7.17;4.83;;;;;;;22.56;81.94;98680.59;7255253;40;20311;31
2023/08/26 02:17:48;;;;;;;5.75;4.20;;;;;;;22.54;80.64;98681.94;7272023;39;20323;31
2023/08/26 02:23:08;;;;;;;6.87;4.35;;;;;;;22.51;81.25;98679.72;7315988;39;20266;31
2023/08/26 02:28:44;;;;;;;8.56;4.16;;;;;;;22.56;79.88;98691.56;7274752;39;20268;31
2023/08/26 02:34:31;;;;;;;8.87;3.83;;;;;;;22.46;80.22;98685.97;7245346;39;20273;31
2023/08/26 02:45:11;;;;;;;7.40;3.78;;;;;;;22.41;80.13;98699.63;7232914;40;20807;31
2023/08/26 02:50:43;;;;;;;9.07;5.20;;;;;;;22.43;79.94;98702.94;7252358;40;20361;31
2023/08/26 03:01:20;;;;;;;13.00;4.90;;;;;;;22.38;79.48;98698.22;7316563;39;21265;31
2023/08/26 03:06:55;;;;;;;6.97;4.10;;;;;;;22.37;80.46;98713.06;7304990;39;20321;31
2023/08/26 03:12:12;;;;;;;8.24;4.26;;;;;;;22.35;80.38;98715.22;7287468;39;20265;31
2023/08/26 03:17:48;;;;;;;9.70;4.40;;;;;;;22.20;80.43;98726.00;7275211;39;20256;31
2023/08/26 03:23:08;;;;;;;7.45;4.00;;;;;;;22.26;80.73;98730.47;7260723;39;20248;31
2023/08/26 03:28:44;;;;;;;10.85;4.60;;;;;;;22.28;79.31;98728.31;7309548;39;20332;31
2023/08/26 03:34:18;;;;;;;7.70;4.23;;;;;;;22.21;79.82;98729.56;7156445;39;20423;31
2023/08/26 03:39:53;;;;;;;6.65;3.80;;;;;;;22.20;80.14;98752.63;7280176;39;20284;31
2023/08/26 03:45:16;;;;;;;10.05;4.00;;;;;;;22.12;79.78;98748.38;7262882;39;20257;31
2023/08/26 03:50:50;;;;;;;5.45;3.70;;;;;;;22.12;79.72;98762.09;7291743;39;20244;31
2023/08/26 03:56:25;;;;;;;7.20;4.33;;;;;;;22.05;79.37;98761.47;7303999;39;20263;31
2023/08/26 04:01:46;;;;;;;6.35;3.80;;;;;;;22.01;79.14;98754.81;7325743;39;20264;31
2023/08/26 04:07:22;;;;;;;5.20;3.65;;;;;;;21.91;79.36;98768.31;7344274;39;20278;31
2023/08/26 04:17:43;;;;;;;5.22;3.62;;;;;;;21.91;78.73;98776.56;7381252;39;21187;31
2023/08/26 04:23:19;;;;;;;7.70;3.40;;;;;;;21.77;77.75;98776.06;7340958;39;20259;31
2023/08/26 04:28:39;;;;;;;6.65;3.40;;;;;;;21.78;77.35;98774.16;7301114;39;20327;31
2023/08/26 04:34:14;;;;;;;7.97;4.17;;;;;;;21.77;77.04;98792.53;7316400;39;20367;31
2023/08/26 04:39:47;;;;;;;9.80;3.62;;;;;;;21.72;78.06;98791.63;7324329;39;20236;31
2023/08/26 04:45:23;;;;;;;11.27;4.20;;;;;;;21.65;78.23;98780.81;7335260;39;20306;31
2023/08/26 04:50:41;;;;;;;7.15;3.53;;;;;;;21.65;77.70;98779.97;7294957;39;20322;31
2023/08/26 04:56:18;;;;;;;6.43;3.80;;;;;;;21.41;77.58;98785.56;7301986;39;20240;31
2023/08/26 05:01:53;;;;;;;6.63;4.17;;;;;;;21.21;79.12;98781.63;7244854;40;20355;31
2023/08/26 05:07:26;;;;;;;6.87;3.37;;;;;;;21.00;77.95;98783.13;7253471;40;20384;31
2023/08/26 05:13:00;;;;;;;5.50;3.22;;;;;;;20.99;76.95;98793.25;7273213;39;20416;31
2023/08/26 05:18:35;;;;;;;7.65;2.80;;;;;;;21.02;77.50;98800.12;7259930;39;20362;31
2023/08/26 05:24:10;;;;;;;6.90;3.10;;;;;;;20.95;76.47;98822.22;7250813;40;20292;31
2023/08/26 05:34:47;;;;;;;7.74;2.84;;;;;;;20.94;75.73;98815.06;7263298;39;21248;31
2023/08/26 05:40:26;;;;;;;5.70;2.70;;;;;;;20.86;74.59;98818.19;7273535;39;20251;31
2023/08/26 05:46:10;;;;;;;3.85;2.30;;;;;;;20.69;74.08;98831.81;7323517;39;20291;31
2023/08/26 05:56:50;;;;;;;5.12;2.20;;;;;;;20.81;72.70;98839.16;7280498;39;21125;31
2023/08/26 06:02:22;;;;;;;2.72;2.17;;;;;;;20.79;73.25;98866.81;7272719;40;20344;31
2023/08/26 06:07:41;;;;;;;4.07;2.20;;;;;;;20.76;73.07;98864.53;7295636;39;20259;31
2023/08/26 06:13:16;;;;;;;2.50;2.17;;;;;;;20.78;72.72;98847.88;7340226;39;20344;31
2023/08/26 06:18:48;;;;;;;4.55;2.35;;;;;;;20.73;71.76;98862.28;7275288;39;20249;31
2023/08/26 06:24:21;;;;;;;3.70;2.25;;;;;;;20.75;72.22;98860.16;7235608;40;20266;31
2023/08/26 06:30:03;;;;;;;7.40;2.50;;;;;;;20.84;71.72;98858.72;7250882;40;20244;31
2023/08/26 06:35:17;;;;;;;7.43;2.37;;;;;;;20.97;72.80;98861.19;7342753;39;20258;31
2023/08/26 06:40:37;;;;;;;7.87;2.77;;;;;;;21.01;72.30;98856.06;7341159;39;20251;31
2023/08/26 06:46:14;;;;;;;7.07;2.42;;;;;;;21.12;71.24;98857.91;7347392;39;20467;31
2023/08/26 06:51:48;;;;;;;4.30;2.30;;;;;;;21.15;71.37;98865.66;7338651;39;20240;31
2023/08/26 06:57:09;;;;;;;4.00;2.40;;;;;;;21.28;71.49;98861.84;7314588;39;20236;31
2023/08/26 07:02:44;;;;;;;4.93;2.50;;;;;;;21.33;71.54;98837.25;7321719;39;20250;31
2023/08/26 07:08:17;;;;;;;4.80;2.37;;;;;;;21.54;71.01;98864.81;7293433;39;20360;31
2023/08/26 07:13:34;;;;;;;4.55;2.55;;;;;;;21.38;70.23;98868.34;7303137;39;20364;31
2023/08/26 07:19:10;;;;;;;3.83;2.20;;;;;;;21.18;69.82;98872.59;7282948;39;20240;31
2023/08/26 07:24:29;;;;;;;3.75;2.50;;;;;;;21.23;69.13;98859.84;7292368;39;20371;31
2023/08/26 07:29:48;;;;;;;6.47;2.30;;;;;;;21.44;68.52;98855.56;7258583;40;20257;31
2023/08/26 07:35:23;;;;;;;5.72;2.30;;;;;;;21.39;67.84;98856.31;7294265;40;20353;31
2023/08/26 07:40:43;;;;;;;5.77;2.20;;;;;;;21.36;67.33;98862.28;7311972;39;20332;31
2023/08/26 07:46:18;;;;;;;4.35;2.10;;;;;;;21.36;67.53;98861.44;7299379;39;20263;31
2023/08/26 07:51:52;;;;;;;2.90;2.28;;;;;;;21.28;66.62;98862.66;7310494;39;20496;31
2023/08/26 07:57:12;;;;;;;3.23;2.10;;;;;;;21.18;66.51;98870.69;7279432;39;20285;31
2023/08/26 08:02:57;;;;;;;;;;;;;;;;;;;;;
2023/08/26 08:08:22;;;;;;;4.00;2.10;;;;;;;21.14;66.56;98869.50;7285772;39;20412;31
2023/08/26 08:13:58;;;;;;;5.20;2.20;;;;;;;21.24;66.86;98860.66;7309208;39;20447;31
2023/08/26 08:19:32;;;;;;;3.70;2.10;;;;;;;21.25;66.45;98867.78;7332035;39;21021;31
2023/08/26 08:25:09;;;;;;;3.40;2.35;;;;;;;21.24;66.55;98861.47;7257873;40;20375;31
2023/08/26 08:30:44;;;;;;;5.20;2.10;;;;;;;21.24;66.27;98871.63;7238397;40;20252;31
2023/08/26 08:36:17;;;;;;;7.15;2.50;;;;;;;21.21;66.60;98874.84;7250822;40;20241;31
2023/08/26 08:41:53;;;;;;;4.55;2.15;;;;;;;21.10;65.71;98887.50;7290509;40;20248;31
2023/08/26 08:47:28;;;;;;;2.58;2.10;;;;;;;21.18;66.79;98891.78;7310105;39;20267;31
2023/08/26 08:53:04;;;;;;;4.82;2.15;;;;;;;21.33;65.75;98883.84;7279047;40;20247;31
2023/08/26 08:58:41;;;;;;;4.40;2.35;;;;;;;21.47;64.28;98880.59;7267683;40;20288;31
2023/08/26 09:09:38;;;;;;;4.30;2.33;;;;;;;21.58;64.17;98863.28;7304480;39;21147;31
2023/08/26 09:20:20;;;;;;;5.07;2.35;;;;;;;21.79;61.68;98869.12;7302006;39;21136;31
2023/08/26 09:31:16;;;;;;;3.60;1.80;;;;;;;21.86;62.71;98853.31;7295197;39;20708;31
2023/08/26 09:36:52;;;;;;;2.47;1.73;;;;;;;21.98;62.66;98843.16;7282544;39;20338;31
2023/08/26 09:42:26;;;;;;;5.25;2.00;;;;;;;22.13;61.96;98848.88;7275101;40;21204;31
2023/08/26 09:48:02;;;;;;;3.60;1.90;;;;;;;22.09;62.16;98847.72;7278907;40;20245;31
2023/08/26 09:53:45;;;;;;;3.10;1.93;;;;;;;22.09;61.28;98831.25;7253393;40;20737;31
2023/08/26 09:59:17;;;;;;;6.95;2.08;;;;;;;22.19;61.86;98847.91;7277303;40;20786;31
2023/08/26 10:04:52;;;;;;;4.35;1.95;;;;;;;22.20;60.06;98848.72;7256619;40;20766;31
2023/08/26 10:10:34;;;;;;;2.55;1.87;;;;;;;22.31;59.79;98850.53;7228319;40;20257;31
2023/08/26 10:16:06;;;;;;;2.15;1.67;;;;;;;22.26;59.10;98870.50;7048664;40;20339;31
2023/08/26 10:21:41;;;;;;;4.00;2.10;;;;;;;22.36;60.11;98867.94;7277082;39;20364;31
2023/08/26 10:27:19;;;;;;;2.47;1.73;;;;;;;22.54;58.83;98871.50;7260154;40;20251;31
2023/08/26 10:32:57;;;;;;;2.87;1.80;;;;;;;22.46;58.49;98868.09;7225331;40;20365;31
2023/08/26 10:38:18;;;;;;;2.50;1.70;;;;;;;22.55;59.13;98862.19;7256228;39;20256;31
2023/08/26 10:43:52;;;;;;;3.00;1.70;;;;;;;22.56;58.91;98863.81;7283038;39;20363;31
2023/08/26 10:49:27;;;;;;;4.37;1.95;;;;;;;22.57;58.53;98865.50;7277590;39;21385;31
2023/08/26 10:55:02;;;;;;;4.15;1.80;;;;;;;22.58;58.68;98861.66;7270497;40;20240;31
2023/08/26 11:00:38;;;;;;;3.45;2.00;;;;;;;22.61;57.94;98872.97;7281900;40;20252;31
2023/08/26 11:06:21;;;;;;;4.08;2.00;;;;;;;22.62;57.94;98873.81;7231638;40;21693;31
2023/08/26 11:11:39;;;;;;;3.30;1.80;;;;;;;22.64;58.53;98868.91;7227201;40;20284;31
2023/08/26 11:17:21;;;;;;;3.40;1.95;;;;;;;22.59;57.73;98860.59;7319046;40;20281;31
2023/08/26 11:27:45;;;;;;;2.20;1.50;;;;;;;22.78;57.30;98861.97;7352822;39;20521;31
2023/08/26 11:38:28;;;;;;;5.55;1.70;;;;;;;22.58;57.83;98853.41;7374744;39;20259;31
2023/08/26 11:43:51;;;;;;;2.22;1.70;;;;;;;22.45;58.26;98849.13;7345031;39;20259;31
2023/08/26 11:49:31;;;;;;;4.40;1.80;;;;;;;22.48;59.51;98843.09;7338495;39;20260;31
2023/08/26 11:55:12;;;;;;;3.83;2.05;;;;;;;22.63;58.43;98859.00;7282188;40;20257;31
2023/08/26 12:05:55;;;;;;;4.30;1.70;;;;;;;22.02;58.18;98872.59;7292369;39;21121;31
2023/08/26 12:11:26;;;;;;;2.40;1.60;;;;;;;21.92;58.84;98868.81;7259904;40;20257;31
2023/08/26 12:22:28;;;;;;;2.55;1.70;;;;;;;21.92;59.90;98864.19;7324753;38;9860413;31
2023/08/26 12:27:48;;;;;;;3.30;1.65;;;;;;;22.16;59.58;98877.75;7382190;39;20251;31
2023/08/26 12:33:23;;;;;;;3.44;1.74;;;;;;;22.06;59.28;98867.44;7385852;39;20262;31
2023/08/26 12:38:59;;;;;;;3.55;1.80;;;;;;;22.06;59.76;98878.41;7289854;39;20309;31
2023/08/26 12:44:21;;;;;;;4.12;1.90;;;;;;;21.93;60.23;98878.75;7311291;39;21070;31
2023/08/26 12:49:41;;;;;;;3.72;1.90;;;;;;;21.82;60.71;98874.94;7244330;40;20789;31
2023/08/26 12:55:16;;;;;;;4.62;1.90;;;;;;;21.84;61.57;98874.69;7274096;40;21255;31
2023/08/26 13:00:37;;;;;;;5.25;2.00;;;;;;;21.89;61.09;98878.38;7293079;39;20252;31
2023/08/26 13:05:59;;;;;;;6.00;2.10;;;;;;;21.88;61.37;98884.09;7306498;40;20758;31
2023/08/26 13:16:53;;;;;;;2.53;1.80;;;;;;;21.92;60.84;98879.78;7363809;39;20263;31
2023/08/26 13:22:12;;;;;;;4.55;2.35;;;;;;;21.90;62.26;98876.44;7316637;39;20249;31
2023/08/26 13:27:50;;;;;;;2.60;1.87;;;;;;;21.91;63.12;98865.22;7299347;39;20287;31
2023/08/26 13:33:10;;;;;;;5.68;2.05;;;;;;;22.05;63.21;98859.44;7275460;40;20263;31
2023/08/26 13:38:31;;;;;;;6.27;2.37;;;;;;;22.23;62.86;98862.78;7316883;39;20255;31
2023/08/26 13:49:41;;;;;;;4.18;2.08;;;;;;;22.43;61.65;98838.38;7240069;40;20265;31
2023/08/26 13:55:02;;;;;;;3.60;2.00;;;;;;;22.45;62.30;98838.12;7348981;39;20243;31
2023/08/26 14:00:36;;;;;;;3.35;2.20;;;;;;;22.64;61.80;98824.94;7358767;39;20254;31
2023/08/26 14:06:00;;;;;;;2.65;2.08;;;;;;;22.82;61.86;98805.41;7307084;39;20776;31
2023/08/26 14:11:23;;;;;;;5.22;2.22;;;;;;;23.18;61.87;98795.69;7336535;39;20284;31
2023/08/26 14:17:00;;;;;;;4.70;1.92;;;;;;;23.39;60.59;98805.00;7316168;39;20333;31
2023/08/26 14:27:32;;;;;;;3.58;2.00;;;;;;;23.54;58.79;98766.66;7359217;39;21123;31
2023/08/26 14:38:13;;;;;;;4.40;1.70;;;;;;;23.65;58.27;98754.66;7309184;39;20271;31
2023/08/26 14:48:58;;;;;;;3.78;2.00;;;;;;;23.83;58.66;98739.69;7297276;39;20595;31
2023/08/26 14:59:41;;;;;;;3.40;2.17;;;;;;;23.76;59.04;98721.44;7306036;39;20367;31
2023/08/26 15:10:31;;;;;;;;;;;;;;;;;;;;;
2023/08/26 15:16:01;;;;;;;4.65;2.00;;;;;;;23.47;58.21;98692.59;7337985;39;20237;31
2023/08/26 15:26:40;;;;;;;7.00;2.80;;;;;;;23.98;57.59;98720.50;7316567;39;20271;31
2023/08/26 15:37:21;;;;;;;4.10;2.10;;;;;;;24.08;57.31;98729.66;7320422;39;21107;31
2023/08/26 15:48:32;;;;;;;3.75;1.95;;;;;;;23.69;57.88;98740.12;7243876;40;20359;31
2023/08/26 15:54:09;;;;;;;3.67;2.17;;;;;;;23.50;58.07;98744.34;7257837;40;20684;31
2023/08/26 15:59:44;;;;;;;3.85;2.10;;;;;;;23.49;58.01;98750.09;7218471;40;20802;31
2023/08/26 16:05:19;;;;;;;2.72;1.90;;;;;;;23.31;58.89;98767.78;7209216;40;20681;31
2023/08/26 16:15:58;;;;;;;4.80;1.90;;;;;;;23.26;59.07;98781.47;7252464;40;20515;31
2023/08/26 16:21:21;;;;;;;4.45;2.20;;;;;;;23.26;60.63;98770.47;7255253;40;20265;31
2023/08/26 16:26:40;;;;;;;4.50;2.30;;;;;;;23.35;59.89;98758.75;7259135;40;20257;31
2023/08/26 16:32:17;;;;;;;2.95;2.20;;;;;;;23.28;59.56;98755.38;7278800;39;21188;31
2023/08/26 16:37:38;;;;;;;4.95;1.87;;;;;;;23.10;58.79;98755.72;7302429;39;20242;31
2023/08/26 16:42:59;;;;;;;2.42;1.83;;;;;;;22.95;59.51;98755.53;7298274;39;20259;31
2023/08/26 16:48:35;;;;;;;4.25;2.10;;;;;;;22.86;60.25;98738.69;7287879;39;20257;31
2023/08/26 16:54:13;;;;;;;5.27;2.20;;;;;;;22.70;61.66;98736.00;7293949;39;20260;31
2023/08/26 16:59:47;;;;;;;6.10;2.27;;;;;;;22.73;62.86;98743.75;7263665;39;20391;31
2023/08/26 17:10:23;;;;;;;5.95;2.10;;;;;;;22.55;63.85;98735.81;7367916;39;21039;31
2023/08/26 17:21:00;;;;;;;4.78;2.28;;;;;;;22.44;64.15;98734.81;7387047;39;21084;31
2023/08/26 17:26:37;;;;;;;3.05;2.10;;;;;;;22.47;63.69;98731.56;7297308;40;20378;31
2023/08/26 17:32:13;;;;;;;7.12;2.40;;;;;;;22.48;64.10;98741.47;7264866;40;20249;31
2023/08/26 17:37:49;;;;;;;4.73;2.70;;;;;;;22.51;64.92;98740.94;7179505;40;20266;31
2023/08/26 17:43:26;;;;;;;4.75;2.72;;;;;;;22.36;65.01;98738.84;7235338;40;20287;31
2023/08/26 17:54:06;;;;;;;3.40;2.22;;;;;;;22.28;65.50;98763.16;7313558;39;21190;31
2023/08/26 17:59:45;;;;;;;3.90;2.15;;;;;;;22.24;65.54;98773.84;7262674;40;20293;31
2023/08/26 18:05:20;;;;;;;4.65;2.62;;;;;;;22.16;65.99;98776.19;7263392;40;20245;31
2023/08/26 18:10:40;;;;;;;3.90;2.70;;;;;;;22.12;66.61;98784.06;7363081;39;20251;31
2023/08/26 18:16:21;;;;;;;4.82;2.50;;;;;;;21.99;66.85;98767.94;7346543;39;20271;31
2023/08/26 18:26:57;;;;;;;7.20;3.35;;;;;;;22.01;66.72;98787.75;7296789;40;20365;31
2023/08/26 18:32:35;;;;;;;5.12;3.12;;;;;;;21.93;67.08;98789.00;7256753;40;20275;31
2023/08/26 18:37:55;;;;;;;7.30;2.90;;;;;;;;;;7245085;40;20237;31
2023/08/26 18:43:15;;;;;;;4.93;2.43;;;;;;;21.86;67.28;98776.47;7261024;40;20634;31
2023/08/26 18:48:51;;;;;;;5.72;2.90;;;;;;;21.88;67.56;98782.56;7270878;40;20340;31
2023/08/26 18:54:15;;;;;;;5.90;3.80;;;;;;;21.89;67.65;98792.47;7232098;40;20776;31
2023/08/26 18:59:33;;;;;;;6.45;3.70;;;;;;;21.92;67.62;98792.81;7258088;39;20798;31
2023/08/26 19:05:08;;;;;;;9.82;5.55;;;;;;;21.77;67.71;98792.53;7318556;39;20252;31
2023/08/26 19:10:28;;;;;;;9.90;5.55;;;;;;;21.70;68.15;98800.09;7289942;39;20269;31
2023/08/26 19:16:04;;;;;;;10.73;5.75;;;;;;;21.67;68.47;98805.25;7264206;40;20402;31
2023/08/26 19:21:41;;;;;;;7.24;4.84;;;;;;;21.60;68.77;98810.88;7245163;40;20327;31
2023/08/26 19:27:01;;;;;;;8.18;4.37;;;;;;;21.55;68.83;98814.38;7288816;39;20253;31
2023/08/26 19:32:21;;;;;;;6.18;3.90;;;;;;;21.61;69.34;98830.91;7317681;39;20340;31
2023/08/26 19:37:58;;;;;;;11.45;6.00;;;;;;;21.55;69.13;98817.09;7309412;39;20236;31
2023/08/26 19:43:19;;;;;;;5.22;3.83;;;;;;;21.65;68.78;98796.44;7301770;39;20253;31
2023/08/26 19:48:41;;;;;;;4.70;2.92;;;;;;;21.68;68.77;98784.94;7342829;39;20579;31
2023/08/26 19:54:17;;;;;;;3.83;2.70;;;;;;;21.61;68.82;98776.91;7194101;39;20227;31
2023/08/26 19:59:38;;;;;;;2.62;2.22;;;;;;;21.68;68.98;98777.56;7347926;39;20260;31
2023/08/26 20:04:58;;;;;;;7.05;3.00;;;;;;;21.66;68.61;98767.91;7353477;39;20335;31
2023/08/26 20:10:36;;;;;;;4.78;2.35;;;;;;;21.56;69.86;98777.62;7345497;39;20251;31
2023/08/26 20:16:11;;;;;;;6.40;2.75;;;;;;;21.33;71.22;98761.31;7328257;39;20248;31
2023/08/26 20:21:46;;;;;;;7.35;2.62;;;;;;;21.27;71.23;98762.31;7278760;40;20245;31
2023/08/26 20:27:22;;;;;;;4.05;2.50;;;;;;;21.31;71.47;98766.22;7248703;40;20237;31
2023/08/26 20:32:39;;;;;;;9.85;5.40;;;;;;;21.30;71.13;98760.97;7218439;40;20367;31
2023/08/26 20:43:21;;;;;;;15.10;10.98;;;;;;;21.35;71.85;98758.31;7241386;40;21048;31
2023/08/26 20:48:42;;;;;;;12.55;8.50;;;;;;;21.34;71.11;98753.91;7282313;39;20251;31
2023/08/26 20:54:03;;;;;;;9.30;6.47;;;;;;;21.25;71.57;98755.38;7316657;39;20344;31
2023/08/26 20:59:42;;;;;;;9.07;6.30;;;;;;;21.12;72.84;98753.75;7280363;40;21011;31
2023/08/26 21:05:04;;;;;;;8.00;4.70;;;;;;;21.05;72.54;98764.03;7277144;39;20281;31
2023/08/26 21:15:43;;;;;;;7.57;4.37;;;;;;;20.74;74.31;98751.66;7296247;39;21252;31
2023/08/26 21:21:03;;;;;;;7.60;4.60;;;;;;;20.62;73.94;98745.38;7297453;40;20292;31
2023/08/26 21:26:26;;;;;;;5.37;3.60;;;;;;;20.52;74.20;98740.50;7291331;39;20353;31
2023/08/26 21:32:02;;;;;;;6.57;3.50;;;;;;;20.54;74.93;98752.03;7296775;39;20488;31
2023/08/26 21:37:37;;;;;;;10.70;4.20;;;;;;;20.52;74.24;98756.94;7273329;39;20333;31
2023/08/26 21:48:19;;;;;;;10.35;4.00;;;;;;;20.39;74.31;98772.78;7313477;39;21203;31
2023/08/26 21:53:42;;;;;;;6.43;3.53;;;;;;;20.43;74.84;98763.88;7308813;39;20390;31
2023/08/26 21:59:03;;;;;;;7.00;3.35;;;;;;;20.29;74.55;98737.78;7271142;40;20368;31
2023/08/26 22:09:44;;;;;;;4.77;3.03;;;;;;;20.26;74.50;98732.78;7303198;39;21107;31
2023/08/26 22:20:11;;;;;;;6.05;3.30;;;;;;;20.27;74.44;98727.06;7366688;39;20332;31
2023/08/26 22:31:04;;;;;;;;;;;;;;;;;;;;;
2023/08/26 22:36:16;;;;;;;5.33;3.03;;;;;;;19.88;75.99;98697.72;7300716;39;20322;31
2023/08/26 22:41:36;;;;;;;3.70;2.53;;;;;;;19.91;76.18;98701.91;7322022;39;20263;31
2023/08/26 22:52:16;;;;;;;4.57;2.90;;;;;;;19.81;76.14;98707.97;7360188;39;21101;31
2023/08/26 22:57:38;;;;;;;5.15;2.90;;;;;;;19.79;75.81;98701.88;7286922;39;20248;31
2023/08/26 23:03:09;;;;;;;6.67;2.80;;;;;;;19.77;76.44;98668.47;7320069;39;20364;31
2023/08/26 23:08:47;;;;;;;4.80;2.82;;;;;;;19.55;75.95;98670.13;7256388;39;20264;31
2023/08/26 23:14:22;;;;;;;4.20;2.80;;;;;;;19.64;76.92;98679.66;7257237;40;20249;31
2023/08/26 23:19:59;;;;;;;4.03;3.10;;;;;;;19.67;76.00;98658.13;7308395;39;20244;31
2023/08/26 23:25:33;;;;;;;4.80;3.20;;;;;;;19.57;76.32;98666.09;7285491;39;20269;31
2023/08/26 23:31:08;;;;;;;4.05;3.10;;;;;;;19.54;76.39;98643.87;7296175;39;20312;31
2023/08/26 23:36:30;;;;;;;6.30;2.70;;;;;;;19.58;77.19;98648.62;7338695;39;20236;31
2023/08/26 23:42:05;;;;;;;3.35;2.50;;;;;;;19.47;78.11;98640.44;7328765;39;20240;31
2023/08/26 23:47:27;;;;;;;4.50;2.90;;;;;;;19.42;76.90;98646.56;7301406;40;20244;31
2023/08/26 23:53:02;;;;;;;3.23;2.60;;;;;;;19.48;77.88;98621.06;7255206;40;20291;31
2023/08/26 23:58:39;;;;;;;4.47;2.77;;;;;;;19.55;76.48;98610.81;7314922;39;20260;31
